Time;durP1;ratioP1;P1;durP2;ratioP2;P2;SDS_P1;SDS_P2;PMS_P1;PMS_P2;Temp;Humidity;BMP_temperature;BMP_pressure;BME280_temperature;BME280_humidity;BME280_pressure;Samples;Min_cycle;Max_cycle;Signal;HPM_P1;HPM_P2
2023/05/06 00:00:43;;;;;;;1.95;1.45;;;;;;;3.60;56.69;148218.50;5065385;28;20084;-66
2023/05/06 00:03:09;;;;;;;3.28;1.50;;;;;;;3.67;56.82;148236.34;5045818;28;20358;-67
2023/05/06 00:05:35;;;;;;;2.08;1.65;;;;;;;3.58;56.66;148214.66;5063565;28;20129;-67
2023/05/06 00:08:01;;;;;;;2.10;1.55;;;;;;;3.52;56.86;148199.38;5046919;28;20253;-67
2023/05/06 00:10:26;;;;;;;3.28;1.75;;;;;;;3.56;56.74;148209.59;5055207;28;20029;-67
2023/05/06 00:12:52;;;;;;;1.88;1.27;;;;;;;3.67;57.62;148235.09;5062348;28;20116;-66
2023/05/06 00:15:17;;;;;;;2.42;1.60;;;;;;;3.61;57.25;148221.06;5063338;28;20029;-67
2023/05/06 00:17:43;;;;;;;1.40;1.30;;;;;;;3.56;57.53;148209.59;5063462;28;20044;-67
2023/05/06 00:20:09;;;;;;;1.60;1.50;;;;;;;3.53;57.14;148201.91;5063140;28;20039;-66
2023/05/06 00:22:35;;;;;;;1.67;1.58;;;;;;;3.49;58.25;148190.44;5045404;28;20025;-66
2023/05/06 00:25:00;;;;;;;1.95;1.50;;;;;;;3.44;58.36;148178.97;5062957;28;20049;-66
2023/05/06 00:27:26;;;;;;;2.25;1.48;;;;;;;3.40;58.17;148170.03;5062882;28;20075;-66
2023/05/06 00:29:52;;;;;;;1.60;1.50;;;;;;;3.31;58.43;148145.78;5062754;28;20024;-67
2023/05/06 00:32:17;;;;;;;1.85;1.67;;;;;;;3.01;59.41;148073.16;5062896;28;20028;-66
2023/05/06 00:34:43;;;;;;;2.83;1.60;;;;;;;3.18;60.04;148115.22;5062903;28;20052;-66
2023/05/06 00:37:08;;;;;;;2.88;1.70;;;;;;;3.31;58.91;148145.78;5062808;28;20032;-65
2023/05/06 00:39:34;;;;;;;2.97;1.48;;;;;;;3.38;58.47;148164.94;5063733;28;20097;-66
2023/05/06 00:42:01;;;;;;;1.60;1.40;;;;;;;3.25;59.46;148133.06;5062690;28;20071;-65
2023/05/06 00:44:30;;;;;;;3.03;1.70;;;;;;;3.16;59.51;148110.09;5062620;28;20194;-66
2023/05/06 00:46:57;;;;;;;2.58;1.33;;;;;;;3.24;59.98;148130.50;5062657;28;20025;-66
2023/05/06 00:49:23;;;;;;;3.70;1.73;;;;;;;3.25;59.86;148133.06;5062514;28;20032;-66
2023/05/06 00:51:51;;;;;;;1.50;1.40;;;;;;;3.03;60.49;148078.22;5062463;28;20033;-67
2023/05/06 00:54:17;;;;;;;1.75;1.50;;;;;;;3.02;60.97;148074.41;5062537;28;20033;-65
2023/05/06 00:56:43;;;;;;;3.30;1.45;;;;;;;3.08;60.98;148089.75;5062639;28;20044;-65
2023/05/06 00:59:09;;;;;;;2.13;1.40;;;;;;;2.97;60.88;148062.94;5062449;28;20080;-65
2023/05/06 01:01:36;;;;;;;2.88;1.73;;;;;;;3.02;60.58;148074.41;5062534;28;20033;-65
2023/05/06 01:04:02;;;;;;;1.98;1.77;;;;;;;2.86;61.43;148036.16;5062244;28;20029;-65
2023/05/06 01:06:30;;;;;;;2.55;1.85;;;;;;;2.78;62.15;148015.81;5061453;28;20070;-66
2023/05/06 01:09:23;;;;;;;2.42;1.83;;;;;;;2.65;62.69;147982.66;5062198;28;20036;-66
2023/05/06 01:11:58;;;;;;;2.60;2.08;;;;;;;2.77;61.61;148013.25;5061547;28;20108;-65
2023/05/06 01:14:42;;;;;;;2.03;1.70;;;;;;;2.70;62.45;147995.41;5061742;28;20497;-64
2023/05/06 01:17:11;;;;;;;2.22;1.70;;;;;;;2.64;62.56;147980.13;5060520;28;20036;-64
2023/05/06 01:19:40;;;;;;;1.55;1.40;;;;;;;2.63;62.82;147978.84;5061641;28;20045;-64
2023/05/06 01:22:08;;;;;;;1.48;1.30;;;;;;;2.66;62.53;147986.47;5053252;28;20049;-64
2023/05/06 01:24:44;;;;;;;1.85;1.50;;;;;;;2.81;63.06;148022.16;5045771;28;20032;-64
2023/05/06 01:27:11;;;;;;;1.73;1.40;;;;;;;2.76;62.96;148010.69;5061798;28;20040;-65
2023/05/06 01:29:40;;;;;;;3.20;1.42;;;;;;;2.67;62.88;147989.03;5060687;28;20096;-65
2023/05/06 01:32:18;;;;;;;2.58;1.63;;;;;;;2.72;62.86;148001.78;5061695;28;20028;-65
2023/05/06 01:35:11;;;;;;;3.88;1.70;;;;;;;2.53;63.33;147954.63;5062247;28;20317;-65
2023/05/06 01:38:22;;;;;;;2.80;1.80;;;;;;;2.66;63.04;147986.47;5060580;28;20079;-64
2023/05/06 01:40:53;;;;;;;2.40;1.50;;;;;;;2.67;63.13;147987.78;5062665;28;20380;-64
2023/05/06 01:43:20;;;;;;;1.60;1.50;;;;;;;2.65;63.46;147982.66;5061786;28;20329;-64
2023/05/06 01:45:52;;;;;;;2.13;1.77;;;;;;;2.60;63.59;147971.19;5061407;28;20039;-63
2023/05/06 01:48:27;;;;;;;4.50;2.00;;;;;;;2.51;64.50;147949.53;5062014;28;20032;-63
2023/05/06 01:50:52;;;;;;;2.55;1.67;;;;;;;2.56;64.43;147962.25;5062423;28;20032;-63
2023/05/06 01:53:18;;;;;;;2.53;2.20;;;;;;;2.56;64.76;147962.25;5042674;28;20092;-64
2023/05/06 01:55:44;;;;;;;4.88;2.05;;;;;;;2.44;65.01;147931.72;5054917;28;20101;-63
2023/05/06 01:58:09;;;;;;;2.70;1.65;;;;;;;2.62;64.56;147976.28;5053168;28;20427;-64
2023/05/06 02:00:37;;;;;;;2.55;1.77;;;;;;;2.57;64.40;147963.56;5045420;28;20045;-64
2023/05/06 02:03:02;;;;;;;2.15;1.70;;;;;;;2.62;65.01;147975.00;5062065;28;20217;-64
2023/05/06 02:05:28;;;;;;;3.05;1.88;;;;;;;2.62;64.71;147976.28;5044242;28;20105;-64
2023/05/06 02:07:53;;;;;;;3.20;1.90;;;;;;;2.67;64.84;147989.03;5060868;28;20044;-64
2023/05/06 02:10:19;;;;;;;2.65;1.60;;;;;;;2.63;65.75;147978.84;5061001;28;20257;-64
2023/05/06 02:12:47;;;;;;;2.33;2.08;;;;;;;2.52;66.09;147950.78;5061978;28;20017;-65
2023/05/06 02:15:14;;;;;;;1.92;1.67;;;;;;;2.56;66.14;147961.00;5061522;28;20088;-64
2023/05/06 02:17:40;;;;;;;2.65;1.80;;;;;;;2.65;65.33;147982.66;5061480;28;20031;-65
2023/05/06 02:20:08;;;;;;;2.20;1.50;;;;;;;2.73;65.96;148004.31;5061402;28;20217;-65
2023/05/06 02:22:34;;;;;;;2.60;2.00;;;;;;;2.66;65.61;147985.22;5049707;28;20336;-66
2023/05/06 02:24:59;;;;;;;3.45;1.50;;;;;;;2.76;66.31;148010.69;5048480;28;20092;-66
2023/05/06 02:27:25;;;;;;;6.15;1.63;;;;;;;2.69;65.96;147994.09;5059101;28;20033;-66
2023/05/06 02:29:51;;;;;;;1.58;1.48;;;;;;;2.89;64.89;148043.84;5053945;28;20040;-66
2023/05/06 02:32:16;;;;;;;2.33;1.60;;;;;;;2.86;66.29;148034.91;5061320;28;20047;-66
2023/05/06 02:34:42;;;;;;;3.58;1.98;;;;;;;2.81;66.65;148023.44;5048723;28;20203;-66
2023/05/06 02:37:07;;;;;;;1.50;1.40;;;;;;;2.81;65.08;148022.16;5051303;28;20338;-65
2023/05/06 02:39:33;;;;;;;2.30;1.50;;;;;;;3.47;64.20;148186.59;5052495;28;20041;-64
2023/05/06 02:41:59;;;;;;;2.22;1.50;;;;;;;3.45;63.10;148182.78;5064522;28;20063;-66
2023/05/06 02:44:25;;;;;;;1.38;1.27;;;;;;;3.32;64.10;148148.34;5046684;28;20341;-66
2023/05/06 02:46:50;;;;;;;1.70;1.45;;;;;;;3.39;63.76;148167.50;5063946;28;20225;-65
2023/05/06 02:49:16;;;;;;;1.83;1.48;;;;;;;3.68;62.59;148237.59;5055800;28;20039;-68
2023/05/06 02:51:41;;;;;;;1.77;1.40;;;;;;;3.61;62.54;148222.31;5056394;28;20055;-64
2023/05/06 02:54:07;;;;;;;3.25;1.40;;;;;;;3.62;63.23;148224.88;5046439;28;20045;-65
2023/05/06 02:56:34;;;;;;;1.60;1.40;;;;;;;3.76;62.76;148258.00;5064062;28;20029;-66
2023/05/06 02:59:00;;;;;;;1.63;1.40;;;;;;;3.68;62.49;148237.59;5064553;28;20036;-65
2023/05/06 03:01:26;;;;;;;1.55;1.45;;;;;;;3.83;61.55;148274.59;5064415;28;20038;-66
2023/05/06 03:03:51;;;;;;;2.75;1.27;;;;;;;4.00;60.82;148316.72;5058942;28;20034;-66
2023/05/06 03:06:17;;;;;;;3.72;1.60;;;;;;;3.97;60.99;148311.56;5053113;28;20213;-67
2023/05/06 03:08:43;;;;;;;1.50;1.40;;;;;;;4.03;61.45;148324.34;5064393;28;20036;-67
2023/05/06 03:11:08;;;;;;;3.30;1.60;;;;;;;3.58;61.72;148214.66;5055377;28;20033;-67
2023/05/06 03:13:34;;;;;;;1.45;1.30;;;;;;;3.81;60.70;148270.78;5053039;28;20322;-66
2023/05/06 03:16:01;;;;;;;1.80;1.40;;;;;;;3.80;60.95;148269.53;5050277;28;20032;-66
2023/05/06 03:18:26;;;;;;;3.88;2.10;;;;;;;3.95;60.95;148306.50;5062241;28;20033;-65
2023/05/06 03:20:52;;;;;;;1.70;1.55;;;;;;;3.87;61.08;148284.81;5048978;28;20056;-66
2023/05/06 03:23:17;;;;;;;3.38;1.50;;;;;;;3.90;60.43;148293.72;5064199;28;20029;-65
2023/05/06 03:25:43;;;;;;;1.48;1.38;;;;;;;3.79;61.40;148265.66;5063586;28;20041;-65
2023/05/06 03:28:10;;;;;;;2.72;1.35;;;;;;;3.90;60.99;148292.47;5055149;28;20112;-66
2023/05/06 03:30:36;;;;;;;2.88;1.52;;;;;;;4.07;59.83;148334.56;5043975;28;20100;-67
2023/05/06 03:33:01;;;;;;;2.75;1.45;;;;;;;4.12;59.50;148347.34;5063442;28;20024;-66
2023/05/06 03:35:27;;;;;;;1.77;1.60;;;;;;;4.18;59.00;148361.38;5046867;28;20032;-66
2023/05/06 03:37:53;;;;;;;2.50;1.70;;;;;;;4.31;58.61;148395.78;5062995;28;20040;-67
2023/05/06 03:40:19;;;;;;;1.58;1.40;;;;;;;4.31;59.48;148394.53;5070354;28;20024;-66
2023/05/06 03:42:45;;;;;;;2.80;1.40;;;;;;;4.09;58.86;148340.94;5062810;28;20328;-66
2023/05/06 03:45:10;;;;;;;2.53;1.65;;;;;;;4.15;58.53;148355.00;5050264;28;20079;-66
2023/05/06 03:47:37;;;;;;;2.92;1.52;;;;;;;4.18;58.10;148361.38;5062993;28;20078;-64
2023/05/06 03:50:03;;;;;;;2.88;1.60;;;;;;;4.13;58.27;148351.16;5063403;28;20353;-65
2023/05/06 03:52:29;;;;;;;2.30;1.70;;;;;;;4.17;58.25;148358.81;5063521;28;20337;-65
2023/05/06 03:54:55;;;;;;;3.58;1.27;;;;;;;4.03;58.30;148324.34;5063366;28;20036;-64
2023/05/06 03:57:21;;;;;;;1.73;1.20;;;;;;;4.23;58.38;148374.09;5062332;28;20024;-65
2023/05/06 03:59:46;;;;;;;1.90;1.10;;;;;;;4.35;56.53;148403.44;5025919;28;20018;-66
2023/05/06 04:02:12;;;;;;;1.73;1.30;;;;;;;4.46;56.07;148432.81;5059155;28;20047;-64
2023/05/06 04:04:38;;;;;;;1.77;1.20;;;;;;;4.51;56.46;148443.03;5051885;28;20049;-66
2023/05/06 04:07:04;;;;;;;1.40;1.30;;;;;;;4.46;56.17;148431.50;5058194;28;20298;-65
2023/05/06 04:09:31;;;;;;;2.05;1.50;;;;;;;4.40;56.42;148417.47;5061323;28;20063;-65
2023/05/06 04:11:57;;;;;;;2.00;1.50;;;;;;;4.29;56.88;148390.72;5056895;28;20033;-65
2023/05/06 04:14:23;;;;;;;3.03;1.85;;;;;;;4.42;56.89;148421.34;5044559;28;20029;-66
2023/05/06 04:16:48;;;;;;;3.67;1.55;;;;;;;4.31;56.64;148394.53;5055775;28;20021;-66
2023/05/06 04:19:16;;;;;;;3.00;1.83;;;;;;;4.36;56.81;148406.00;5055042;28;20021;-67
2023/05/06 04:21:42;;;;;;;3.00;1.67;;;;;;;4.55;56.53;148453.25;5050882;28;20337;-65
2023/05/06 04:24:07;;;;;;;2.13;1.35;;;;;;;4.46;55.78;148432.81;5042776;28;20028;-66
2023/05/06 04:26:33;;;;;;;4.13;1.30;;;;;;;4.14;55.88;148352.41;5061361;28;20051;-65
2023/05/06 04:28:59;;;;;;;5.25;1.30;;;;;;;4.14;56.48;148353.69;5062702;28;20350;-66
2023/05/06 04:31:28;;;;;;;3.35;1.00;;;;;;;4.41;55.88;148418.78;5062336;28;20187;-65
2023/05/06 04:33:54;;;;;;;1.30;1.13;;;;;;;4.39;55.82;148414.97;5057229;28;20029;-65
2023/05/06 04:36:20;;;;;;;1.25;1.15;;;;;;;4.18;55.97;148362.63;5051608;28;20052;-66
2023/05/06 04:38:46;;;;;;;3.20;1.25;;;;;;;4.05;55.91;148329.47;5062807;28;20044;-66
2023/05/06 04:41:12;;;;;;;1.48;0.88;;;;;;;3.83;56.00;148274.59;5065343;28;20044;-66
2023/05/06 04:43:38;;;;;;;3.05;0.90;;;;;;;4.14;56.08;148353.69;5062083;28;20048;-67
2023/05/06 04:46:04;;;;;;;2.30;1.20;;;;;;;3.95;56.76;148305.25;5062245;28;20024;-66
2023/05/06 04:48:30;;;;;;;1.27;1.10;;;;;;;3.78;57.14;148264.41;5062601;28;20029;-66
2023/05/06 04:50:55;;;;;;;1.27;0.95;;;;;;;3.91;56.49;148295.03;5062029;28;20193;-65
2023/05/06 04:53:21;;;;;;;1.40;0.95;;;;;;;3.91;57.00;148295.03;5045265;28;20025;-65
2023/05/06 04:55:46;;;;;;;3.17;1.20;;;;;;;3.88;56.61;148287.38;5054012;28;20042;-64
2023/05/06 04:58:13;;;;;;;3.95;1.08;;;;;;;3.82;57.06;148273.34;5054384;28;20109;-66
2023/05/06 05:00:38;;;;;;;2.03;1.00;;;;;;;3.93;56.31;148301.41;5045124;28;20029;-65
2023/05/06 05:03:04;;;;;;;5.32;1.20;;;;;;;4.12;56.81;148347.34;5062218;28;20191;-66
2023/05/06 05:05:32;;;;;;;0.90;0.90;;;;;;;3.85;56.66;148281.00;5061906;28;20337;-66
2023/05/06 05:07:57;;;;;;;5.82;1.23;;;;;;;3.83;56.75;148275.88;5048406;28;20049;-66
2023/05/06 05:10:23;;;;;;;5.13;1.20;;;;;;;4.09;56.81;148339.66;5050330;28;20059;-66
2023/05/06 05:12:48;;;;;;;1.60;1.02;;;;;;;4.40;56.38;148417.47;5058138;28;20029;-67
2023/05/06 05:15:14;;;;;;;2.97;1.20;;;;;;;4.38;56.62;148411.13;5056085;28;20201;-65
2023/05/06 05:17:40;;;;;;;2.13;0.98;;;;;;;4.49;55.11;148440.47;5049168;28;20076;-65
2023/05/06 05:20:06;;;;;;;1.02;0.80;;;;;;;4.30;55.47;148393.28;5061790;28;20032;-66
2023/05/06 05:22:32;;;;;;;2.88;1.08;;;;;;;4.23;55.09;148374.09;5061625;28;20052;-67
2023/05/06 05:24:57;;;;;;;0.90;0.90;;;;;;;3.94;55.85;148302.69;5044044;28;20028;-66
2023/05/06 05:27:23;;;;;;;2.78;1.10;;;;;;;4.17;55.40;148360.06;5061299;28;20033;-66
2023/05/06 05:29:48;;;;;;;4.50;1.10;;;;;;;4.23;56.13;148375.41;5053962;28;20028;-65
2023/05/06 05:32:15;;;;;;;1.58;1.00;;;;;;;4.24;56.91;148376.66;5067088;28;20029;-66
2023/05/06 05:34:40;;;;;;;1.48;1.00;;;;;;;4.17;55.85;148360.06;5064343;28;20371;-67
2023/05/06 05:37:06;;;;;;;2.40;1.33;;;;;;;4.31;55.54;148394.53;5055823;28;20029;-67
2023/05/06 05:39:31;;;;;;;1.42;1.00;;;;;;;4.38;55.10;148412.41;5050819;28;20020;-65
2023/05/06 05:41:57;;;;;;;3.70;1.23;;;;;;;4.57;54.90;148459.59;5060921;28;20068;-66
2023/05/06 05:44:23;;;;;;;1.52;1.20;;;;;;;4.53;55.59;148448.13;5061663;28;20024;-65
2023/05/06 05:46:49;;;;;;;7.43;1.30;;;;;;;4.69;53.91;148487.69;5057234;28;20030;-66
2023/05/06 05:49:15;;;;;;;3.20;0.90;;;;;;;4.51;52.66;148443.03;5027965;28;20021;-66
2023/05/06 05:51:40;;;;;;;1.50;0.90;;;;;;;4.47;53.31;148435.34;5052888;28;20029;-67
2023/05/06 05:54:06;;;;;;;1.25;0.80;;;;;;;4.60;52.76;148466.00;5061580;28;20301;-66
2023/05/06 05:56:31;;;;;;;5.18;1.00;;;;;;;4.66;52.99;148482.59;5061101;28;20039;-65
2023/05/06 05:58:57;;;;;;;1.63;1.20;;;;;;;4.54;53.25;148451.94;5061580;28;20025;-67
2023/05/06 06:01:22;;;;;;;4.65;1.40;;;;;;;4.73;54.51;148497.91;5061370;28;20053;-65
2023/05/06 06:03:48;;;;;;;1.42;1.33;;;;;;;4.78;53.14;148511.94;5043576;28;20076;-66
2023/05/06 06:06:14;;;;;;;2.83;1.10;;;;;;;4.99;52.50;148564.28;5061571;28;20322;-66
2023/05/06 06:08:40;;;;;;;3.90;1.13;;;;;;;5.01;51.89;148568.13;5042818;28;20096;-67
2023/05/06 06:11:06;;;;;;;1.67;1.05;;;;;;;5.10;51.44;148589.81;5040491;28;20064;-65
2023/05/06 06:13:31;;;;;;;2.53;1.17;;;;;;;5.23;51.25;148621.75;5056155;28;20222;-65
2023/05/06 06:15:57;;;;;;;1.98;1.02;;;;;;;5.10;52.01;148591.13;5050565;28;20037;-66
2023/05/06 06:18:23;;;;;;;2.13;1.10;;;;;;;5.26;53.06;148630.69;5065352;28;20021;-65
2023/05/06 06:20:49;;;;;;;1.77;1.25;;;;;;;5.31;51.98;148643.44;5064686;28;20025;-64
2023/05/06 06:23:14;;;;;;;2.85;1.13;;;;;;;4.95;52.46;148554.06;5064961;28;20036;-65
2023/05/06 06:25:40;;;;;;;3.08;1.30;;;;;;;4.96;52.57;148556.63;5065005;28;20068;-66
2023/05/06 06:28:06;;;;;;;1.58;1.48;;;;;;;4.91;53.76;148542.59;5064810;28;20070;-67
2023/05/06 06:30:31;;;;;;;5.07;1.40;;;;;;;5.07;52.77;148583.44;5064627;28;20021;-67
2023/05/06 06:33:00;;;;;;;3.13;1.20;;;;;;;4.94;51.13;148550.25;5065191;28;20036;-67
2023/05/06 06:35:26;;;;;;;3.33;1.00;;;;;;;4.98;51.09;148560.47;5064793;28;20028;-67
2023/05/06 06:37:52;;;;;;;0.80;0.80;;;;;;;4.93;50.20;148549.00;5052904;28;20237;-66
2023/05/06 06:40:18;;;;;;;2.90;1.10;;;;;;;5.24;50.11;148624.31;5060620;28;20028;-66
2023/05/06 06:42:45;;;;;;;1.33;1.10;;;;;;;5.17;50.33;148609.00;5062259;28;20036;-66
2023/05/06 06:45:12;;;;;;;6.10;1.25;;;;;;;5.06;50.81;148580.91;5051396;28;20047;-66
2023/05/06 06:47:38;;;;;;;3.05;1.27;;;;;;;5.31;50.11;148643.44;5046345;28;20029;-66
2023/05/06 06:50:05;;;;;;;2.30;1.00;;;;;;;5.27;49.75;148633.28;5058020;28;20048;-66
2023/05/06 06:52:31;;;;;;;5.43;1.48;;;;;;;5.35;50.11;148652.41;5055674;28;20048;-67
2023/05/06 06:54:56;;;;;;;3.42;0.98;;;;;;;5.29;48.91;148638.34;5048799;28;20088;-67
2023/05/06 06:57:22;;;;;;;2.20;1.00;;;;;;;5.59;49.91;148712.44;5064439;28;20024;-66
2023/05/06 06:59:50;;;;;;;8.20;1.40;;;;;;;5.44;48.80;148674.09;5059333;28;20025;-66
2023/05/06 07:02:16;;;;;;;2.45;0.90;;;;;;;5.56;48.11;148704.78;5060727;28;20268;-66
2023/05/06 07:04:41;;;;;;;3.97;0.90;;;;;;;5.69;48.27;148737.97;5054234;28;20041;-65
2023/05/06 07:07:07;;;;;;;1.90;0.88;;;;;;;5.65;47.72;148727.75;5059467;28;20040;-67
2023/05/06 07:09:32;;;;;;;1.08;0.95;;;;;;;5.69;47.81;148737.97;5064114;28;20035;-66
2023/05/06 07:11:58;;;;;;;2.17;1.33;;;;;;;5.56;47.33;148704.78;5046883;28;20041;-66
2023/05/06 07:14:24;;;;;;;1.58;1.10;;;;;;;5.64;48.30;148725.22;5047246;28;20025;-66
2023/05/06 07:16:50;;;;;;;2.08;1.00;;;;;;;5.67;48.42;148731.56;5056975;28;20035;-67
2023/05/06 07:19:16;;;;;;;2.63;1.30;;;;;;;5.57;47.89;148706.03;5048921;28;20029;-66
2023/05/06 07:21:41;;;;;;;1.65;1.20;;;;;;;5.09;47.85;148587.25;5061857;28;20045;-67
2023/05/06 07:24:07;;;;;;;2.30;1.20;;;;;;;5.16;48.47;148605.16;5027531;28;20334;-65
2023/05/06 07:26:36;;;;;;;4.75;1.20;;;;;;;5.30;48.82;148640.91;5061882;28;20044;-66
2023/05/06 07:29:05;;;;;;;2.65;1.25;;;;;;;5.29;49.08;148637.09;5056539;28;20201;-67
2023/05/06 07:31:32;;;;;;;3.13;1.20;;;;;;;5.27;48.38;148633.28;5063875;28;20044;-67
2023/05/06 07:33:58;;;;;;;4.20;1.30;;;;;;;5.42;49.43;148670.28;5063547;28;20043;-67
2023/05/06 07:36:25;;;;;;;2.42;1.40;;;;;;;5.50;49.51;148690.72;5068325;28;20024;-65
2023/05/06 07:38:51;;;;;;;1.73;1.20;;;;;;;5.57;49.71;148707.31;5063813;28;20043;-66
2023/05/06 07:41:17;;;;;;;3.83;1.40;;;;;;;5.38;48.90;148658.78;5068547;28;20029;-66
2023/05/06 07:43:43;;;;;;;1.15;1.00;;;;;;;5.39;49.16;148662.63;5063603;28;20021;-66
2023/05/06 07:46:09;;;;;;;3.35;1.60;;;;;;;5.41;47.47;148667.72;5052967;28;20032;-65
2023/05/06 07:48:34;;;;;;;1.23;1.10;;;;;;;5.41;47.05;148666.47;5045725;28;20105;-64
2023/05/06 07:51:00;;;;;;;4.20;1.27;;;;;;;5.25;48.61;148626.88;5045445;28;20082;-64
2023/05/06 07:53:26;;;;;;;1.88;1.25;;;;;;;5.31;49.59;148642.19;5047154;28;20422;-65
2023/05/06 07:55:56;;;;;;;1.33;1.00;;;;;;;5.49;48.54;148686.91;5054012;28;20089;-65
2023/05/06 07:58:21;;;;;;;1.20;1.10;;;;;;;5.46;48.43;148679.25;5056360;28;20036;-66
2023/05/06 08:00:47;;;;;;;1.83;1.17;;;;;;;5.60;48.57;148713.69;5047428;28;20037;-66
2023/05/06 08:03:12;;;;;;;2.75;1.20;;;;;;;5.53;50.00;148697.13;5062866;28;20217;-67
2023/05/06 08:05:38;;;;;;;2.60;1.13;;;;;;;5.58;48.81;148709.88;5048224;28;20099;-68
2023/05/06 08:08:04;;;;;;;2.03;1.30;;;;;;;5.51;48.68;148691.97;5049896;28;20304;-67
2023/05/06 08:10:30;;;;;;;4.60;1.30;;;;;;;5.76;46.80;148753.28;5050684;28;20085;-68
2023/05/06 08:12:55;;;;;;;1.90;1.33;;;;;;;5.98;46.51;148809.56;5063014;28;20052;-67
2023/05/06 08:15:21;;;;;;;1.25;0.93;;;;;;;5.81;46.70;148766.09;5044255;28;20028;-68
2023/05/06 08:17:46;;;;;;;2.55;1.30;;;;;;;5.90;45.97;148789.09;5044215;28;20025;-69
2023/05/06 08:20:13;;;;;;;2.75;1.20;;;;;;;5.78;46.24;148759.69;5056659;28;20071;-66
2023/05/06 08:22:38;;;;;;;2.92;1.25;;;;;;;6.04;46.30;148823.63;5052794;28;20307;-67
2023/05/06 08:25:04;;;;;;;6.45;1.58;;;;;;;5.79;46.96;148762.25;5047148;28;20044;-66
2023/05/06 08:27:30;;;;;;;4.15;1.40;;;;;;;5.53;46.21;148697.13;5062473;28;20036;-67
2023/05/06 08:29:56;;;;;;;4.05;1.70;;;;;;;5.92;46.67;148792.94;5038662;28;20025;-67
2023/05/06 08:32:21;;;;;;;2.33;1.35;;;;;;;6.06;45.08;148828.75;5047796;28;20068;-68
2023/05/06 08:34:47;;;;;;;4.57;1.50;;;;;;;6.26;45.40;148878.59;5052028;28;20037;-68
2023/05/06 08:37:13;;;;;;;1.48;1.38;;;;;;;6.49;46.92;148934.84;5056869;28;20025;-67
2023/05/06 08:39:38;;;;;;;1.45;1.35;;;;;;;6.61;45.62;148964.22;5054303;28;20102;-66
2023/05/06 08:42:04;;;;;;;2.65;1.30;;;;;;;6.47;44.47;148929.69;5062212;28;20031;-67
2023/05/06 08:44:30;;;;;;;3.35;1.45;;;;;;;6.57;44.57;148956.56;5047430;28;20321;-68
2023/05/06 08:46:56;;;;;;;1.70;1.60;;;;;;;6.59;44.55;148959.13;5051049;28;20029;-67
2023/05/06 08:49:22;;;;;;;5.63;1.42;;;;;;;6.70;44.07;148988.53;5061072;28;20029;-67
2023/05/06 08:51:51;;;;;;;3.45;1.50;;;;;;;6.70;44.39;148987.25;5059682;28;20063;-66
2023/05/06 08:54:17;;;;;;;2.90;1.27;;;;;;;6.75;44.40;149000.00;5042063;28;20048;-67
2023/05/06 08:56:51;;;;;;;4.95;1.50;;;;;;;6.81;44.16;149015.38;5025863;28;20121;-72
2023/05/06 08:59:22;;;;;;;7.03;1.77;;;;;;;6.82;43.96;149017.91;5062598;28;20066;-70
2023/05/06 09:01:48;;;;;;;3.28;1.50;;;;;;;6.87;43.46;149030.72;5052126;28;20056;-71
2023/05/06 09:04:15;;;;;;;3.35;1.52;;;;;;;7.01;44.02;149065.25;5054853;28;20025;-68
2023/05/06 09:06:41;;;;;;;2.38;1.58;;;;;;;6.82;41.54;149017.91;5051005;28;20082;-70
2023/05/06 09:09:06;;;;;;;3.88;1.20;;;;;;;6.95;41.65;149049.88;5062034;28;20041;-69
2023/05/06 09:11:32;;;;;;;2.42;1.65;;;;;;;7.42;43.17;149167.59;5058584;28;20020;-68
2023/05/06 09:14:13;;;;;;;4.82;1.35;;;;;;;7.50;43.86;149186.75;5060959;28;20103;-69
2023/05/06 09:16:41;;;;;;;2.90;1.23;;;;;;;7.60;39.92;149211.06;5055771;28;20029;-68
2023/05/06 09:19:07;;;;;;;2.75;1.17;;;;;;;7.65;37.98;149222.56;5060686;28;20017;-68
2023/05/06 09:21:38;;;;;;;3.38;1.10;;;;;;;7.67;38.20;149228.97;5043644;28;20300;-68
2023/05/06 09:24:06;;;;;;;5.15;1.33;;;;;;;7.85;39.85;149273.78;5042196;28;20029;-70
2023/05/06 09:26:33;;;;;;;4.80;1.05;;;;;;;7.99;37.75;149308.31;5057685;28;20056;-68
2023/05/06 09:28:59;;;;;;;4.57;1.00;;;;;;;7.65;37.93;149223.84;5061795;28;20044;-68
2023/05/06 09:31:26;;;;;;;2.55;1.30;;;;;;;7.55;39.02;149198.25;5055161;28;20030;-68
2023/05/06 09:33:56;;;;;;;1.38;1.27;;;;;;;7.55;38.69;149198.25;5044024;28;20048;-67
2023/05/06 09:36:24;;;;;;;1.92;1.00;;;;;;;7.66;38.25;149225.16;5062133;28;20033;-68
2023/05/06 09:38:52;;;;;;;2.22;1.20;;;;;;;7.55;37.58;149199.56;5062178;28;20032;-68
2023/05/06 09:41:20;;;;;;;3.00;1.30;;;;;;;7.69;37.71;149234.06;5050140;28;20040;-68
2023/05/06 09:43:48;;;;;;;1.63;1.10;;;;;;;7.76;37.73;149252.00;5061740;28;20028;-67
2023/05/06 09:46:15;;;;;;;2.40;1.02;;;;;;;7.67;37.86;149227.72;5064428;28;20029;-67
2023/05/06 09:48:41;;;;;;;2.17;1.30;;;;;;;7.57;38.65;149204.66;5065416;28;20021;-69
2023/05/06 09:51:07;;;;;;;2.67;1.27;;;;;;;7.54;38.02;149197.00;5066261;28;20048;-67
2023/05/06 09:53:36;;;;;;;3.22;1.35;;;;;;;7.65;39.47;149223.84;5066501;28;20025;-68
2023/05/06 09:56:04;;;;;;;3.13;1.88;;;;;;;7.39;36.59;149159.88;5065513;28;20037;-69
2023/05/06 09:58:30;;;;;;;1.98;1.70;;;;;;;7.46;37.70;149175.25;5058417;28;20037;-70
2023/05/06 10:00:56;;;;;;;2.58;1.40;;;;;;;7.36;37.76;149152.19;5016345;28;20209;-68
2023/05/06 10:03:23;;;;;;;2.45;2.05;;;;;;;7.38;36.75;149157.34;5047607;28;20298;-70
2023/05/06 10:05:50;;;;;;;3.42;1.20;;;;;;;7.53;37.39;149194.44;5065172;28;20371;-69
2023/05/06 10:08:18;;;;;;;2.28;1.10;;;;;;;7.74;38.66;149246.88;5052048;28;20214;-66
2023/05/06 10:10:47;;;;;;;2.90;1.27;;;;;;;7.69;35.78;149234.06;5053748;28;20305;-65
2023/05/06 10:13:15;;;;;;;1.63;1.00;;;;;;;7.59;34.66;149208.50;5064931;28;20033;-66
2023/05/06 10:15:44;;;;;;;2.10;1.00;;;;;;;7.19;34.67;149108.72;5064979;28;20029;-65
2023/05/06 10:18:10;;;;;;;1.38;1.20;;;;;;;7.33;34.83;149143.28;5045077;28;20048;-65
2023/05/06 10:20:37;;;;;;;5.20;1.10;;;;;;;7.42;35.12;149167.59;5042250;28;20076;-65
2023/05/06 10:23:15;;;;;;;4.90;1.20;;;;;;;7.20;36.88;149111.28;5064889;28;20325;-66
2023/05/06 10:25:43;;;;;;;7.38;1.40;;;;;;;7.39;34.89;149159.88;5064549;28;20313;-64
2023/05/06 10:28:10;;;;;;;3.25;1.10;;;;;;;7.28;34.00;149131.72;5064576;28;20325;-66
2023/05/06 10:30:38;;;;;;;0.85;0.80;;;;;;;7.20;34.91;149112.56;5064406;28;20024;-66
2023/05/06 10:33:09;;;;;;;1.85;1.10;;;;;;;7.49;35.66;149182.91;5064693;28;20031;-66
2023/05/06 10:35:51;;;;;;;0.75;0.75;;;;;;;7.49;34.11;149182.91;5063153;28;20028;-66
2023/05/06 10:38:24;;;;;;;1.10;1.00;;;;;;;7.69;35.18;149234.06;5051569;28;20518;-65
2023/05/06 10:40:51;;;;;;;3.40;1.10;;;;;;;7.83;33.94;149267.38;5066778;28;20048;-65
2023/05/06 10:43:30;;;;;;;2.22;1.10;;;;;;;8.18;33.42;149354.38;5059401;28;20032;-66
2023/05/06 10:46:10;;;;;;;1.40;1.10;;;;;;;8.15;32.80;149346.72;5056464;28;20036;-65
2023/05/06 10:48:37;;;;;;;2.03;1.30;;;;;;;8.36;32.91;149399.19;5064693;28;20138;-65
2023/05/06 10:51:15;;;;;;;5.50;1.33;;;;;;;8.11;33.92;149339.03;5064160;28;20031;-64
2023/05/06 10:54:07;;;;;;;5.95;1.52;;;;;;;8.00;34.18;149310.88;5048245;28;20033;-65
2023/05/06 10:56:34;;;;;;;;;;;;;;;7.97;35.21;149303.22;5042024;28;20036;-66
2023/05/06 10:59:11;;;;;;;4.05;1.67;;;;;;;7.71;34.87;149237.91;5064450;28;19905;-65
2023/05/06 11:01:39;;;;;;;3.25;1.10;;;;;;;7.66;34.56;149226.41;5064304;28;20098;-66
2023/05/06 11:04:08;;;;;;;3.00;1.20;;;;;;;7.45;35.35;149173.94;5064069;28;20120;-65
2023/05/06 11:06:35;;;;;;;3.47;1.50;;;;;;;7.32;35.43;149141.97;5064756;28;20044;-66
2023/05/06 11:09:03;;;;;;;2.60;1.30;;;;;;;7.18;35.75;149106.16;5065026;28;20045;-65
2023/05/06 11:11:48;;;;;;;1.33;1.05;;;;;;;7.51;35.33;149189.31;5059549;28;20070;-67
2023/05/06 11:14:23;;;;;;;2.75;1.30;;;;;;;7.76;34.96;149252.00;5051787;28;20033;-66
2023/05/06 11:16:50;;;;;;;5.45;1.38;;;;;;;7.94;36.15;149295.53;5056151;28;20063;-66
2023/05/06 11:19:22;;;;;;;4.20;1.42;;;;;;;7.94;35.46;149296.78;5062373;28;20041;-66
2023/05/06 11:21:48;;;;;;;2.15;1.30;;;;;;;7.94;34.92;149296.78;5063570;28;20281;-66
2023/05/06 11:24:20;;;;;;;2.65;1.40;;;;;;;7.98;33.49;149304.47;5044121;28;20047;-66
2023/05/06 11:26:46;;;;;;;2.47;1.13;;;;;;;7.81;33.10;149262.22;5060582;28;20079;-66
2023/05/06 11:29:15;;;;;;;2.67;1.13;;;;;;;7.59;33.93;149208.50;5063778;28;20080;-66
2023/05/06 11:31:42;;;;;;;1.75;1.40;;;;;;;7.69;34.26;149234.06;5056160;28;20118;-67
2023/05/06 11:34:10;;;;;;;1.98;1.20;;;;;;;7.65;34.66;149223.84;5047089;28;20053;-66